createdAt,value
2023-05-25T00:02:16.532Z,7.33
2023-05-25T00:05:18.461Z,7.50
2023-05-25T00:08:20.156Z,7.83
2023-05-25T00:11:23.465Z,7.20
2023-05-25T00:14:25.323Z,7.57
2023-05-25T00:17:30.021Z,7.50
2023-05-25T00:20:33.366Z,7.50
2023-05-25T00:23:35.570Z,7.03
2023-05-25T00:26:37.431Z,7.10
2023-05-25T00:29:39.054Z,7.03
2023-05-25T00:32:42.992Z,7.10
2023-05-25T00:35:45.241Z,7.50
2023-05-25T00:38:48.459Z,7.27
2023-05-25T00:41:50.157Z,7.17
2023-05-25T00:44:51.875Z,7.00
2023-05-25T00:47:54.382Z,7.57
2023-05-25T00:51:00.105Z,6.77
2023-05-25T00:54:02.288Z,7.40
2023-05-25T00:57:06.403Z,7.47
2023-05-25T01:00:11.625Z,7.53
2023-05-25T01:03:17.903Z,7.63
2023-05-25T01:06:22.269Z,7.60
2023-05-25T01:09:24.898Z,7.70
2023-05-25T01:12:28.947Z,7.90
2023-05-25T01:15:30.893Z,8.00
2023-05-25T01:18:33.854Z,7.63
2023-05-25T01:21:38.102Z,7.70
2023-05-25T01:24:43.066Z,7.47
2023-05-25T01:27:48.786Z,7.67
2023-05-25T01:30:50.982Z,7.60
2023-05-25T01:33:53.787Z,8.10
2023-05-25T01:36:56.034Z,7.47
2023-05-25T01:39:57.820Z,7.33
2023-05-25T01:42:59.567Z,7.50
2023-05-25T01:46:06.790Z,7.10
2023-05-25T01:49:14.640Z,7.37
2023-05-25T01:52:22.199Z,8.10
2023-05-25T01:55:25.371Z,7.60
2023-05-25T01:58:28.146Z,7.60
2023-05-25T02:01:31.218Z,7.53
2023-05-25T02:04:33.759Z,7.03
2023-05-25T02:07:36.044Z,6.57
2023-05-25T02:10:37.710Z,7.63
2023-05-25T02:13:40.035Z,7.23
2023-05-25T02:16:42.724Z,7.30
2023-05-25T02:19:45.120Z,7.73
2023-05-25T02:22:46.801Z,8.13
2023-05-25T02:25:48.540Z,7.83
2023-05-25T02:28:51.758Z,8.27
2023-05-25T02:31:53.477Z,8.77
2023-05-25T02:34:56.198Z,7.97
2023-05-25T02:37:58.217Z,8.37
2023-05-25T02:41:00.035Z,8.23
2023-05-25T02:44:01.776Z,8.33
2023-05-25T02:47:03.673Z,7.63
2023-05-25T02:50:05.891Z,7.80
2023-05-25T02:53:15.004Z,7.73
2023-05-25T02:56:16.900Z,7.70
2023-05-25T02:59:18.629Z,8.23
2023-05-25T03:02:25.526Z,8.50
2023-05-25T03:05:27.956Z,8.90
2023-05-25T03:08:30.732Z,7.70
2023-05-25T03:11:34.210Z,8.77
2023-05-25T03:14:38.211Z,8.50
2023-05-25T03:17:40.354Z,8.07
2023-05-25T03:20:42.121Z,7.73
2023-05-25T03:23:43.970Z,8.13
2023-05-25T03:26:46.124Z,8.47
2023-05-25T03:29:50.174Z,7.80
2023-05-25T03:32:52.570Z,7.90
2023-05-25T03:35:54.403Z,7.67
2023-05-25T03:38:56.169Z,7.83
2023-05-25T03:41:58.535Z,8.03
2023-05-25T03:45:00.386Z,7.83
2023-05-25T03:48:02.154Z,7.37
2023-05-25T03:51:05.932Z,8.20
2023-05-25T03:54:07.702Z,7.50
2023-05-25T03:57:09.460Z,7.70
2023-05-25T04:00:11.597Z,7.67
2023-05-25T04:03:17.650Z,6.93
2023-05-25T04:06:19.566Z,7.10
2023-05-25T04:09:23.160Z,7.10
2023-05-25T04:12:24.841Z,6.77
2023-05-25T04:15:26.881Z,6.87
2023-05-25T04:18:36.076Z,7.00
2023-05-25T04:21:37.742Z,6.20
2023-05-25T04:24:41.531Z,6.40
2023-05-25T04:27:46.735Z,7.10
2023-05-25T04:30:59.995Z,7.00
2023-05-25T04:34:15.093Z,6.43
2023-05-25T04:37:40.976Z,6.90
2023-05-25T04:40:48.499Z,6.67
2023-05-25T04:44:06.879Z,6.30
2023-05-25T04:47:13.672Z,7.17
2023-05-25T04:50:15.393Z,6.80
2023-05-25T04:53:17.609Z,6.27
2023-05-25T04:56:22.269Z,6.53
2023-05-25T04:59:24.053Z,6.73
2023-05-25T05:02:26.086Z,6.00
2023-05-25T05:05:28.632Z,6.30
2023-05-25T05:08:33.986Z,5.60
2023-05-25T05:11:35.781Z,6.83
2023-05-25T05:14:38.551Z,6.57
2023-05-25T05:17:40.402Z,5.97
2023-05-25T05:20:43.197Z,7.00
2023-05-25T05:23:45.121Z,6.60
2023-05-25T05:26:57.096Z,6.17
2023-05-25T05:30:09.684Z,6.03
2023-05-25T05:33:11.670Z,6.10
2023-05-25T05:36:19.421Z,5.00
2023-05-25T05:39:21.111Z,5.20
2023-05-25T05:42:23.378Z,6.93
2023-05-25T05:45:25.090Z,4.63
2023-05-25T05:48:26.810Z,4.80
2023-05-25T05:51:29.139Z,5.10
2023-05-25T05:54:30.944Z,4.75
2023-05-25T05:57:36.431Z,5.88
2023-05-25T06:00:38.204Z,5.95
2023-05-25T06:03:41.829Z,4.70
2023-05-25T06:06:45.381Z,4.53
2023-05-25T06:09:47.208Z,4.70
2023-05-25T06:12:48.915Z,4.50
2023-05-25T06:15:51.010Z,4.50
2023-05-25T06:18:57.201Z,4.47
2023-05-25T06:21:58.962Z,4.55
2023-05-25T06:25:03.904Z,5.78
2023-05-25T06:28:05.678Z,4.68
2023-05-25T06:31:07.459Z,4.10
2023-05-25T06:34:09.193Z,4.82
2023-05-25T06:37:11.132Z,5.00
2023-05-25T06:40:13.118Z,5.10
2023-05-25T06:43:14.860Z,4.10
2023-05-25T06:46:24.060Z,4.88
2023-05-25T06:49:26.166Z,4.50
2023-05-25T06:52:31.563Z,4.75
2023-05-25T06:55:33.316Z,4.60
2023-05-25T06:58:35.048Z,4.55
2023-05-25T07:01:36.936Z,4.68
2023-05-25T07:04:38.717Z,4.53
2023-05-25T07:07:40.408Z,4.90
2023-05-25T07:10:42.097Z,4.80
2023-05-25T07:13:43.771Z,4.95
2023-05-25T07:16:45.700Z,5.00
2023-05-25T07:19:48.821Z,6.05
2023-05-25T07:22:51.113Z,4.88
2023-05-25T07:25:52.829Z,4.78
2023-05-25T07:28:54.536Z,4.80
2023-05-25T07:31:56.251Z,4.72
2023-05-25T07:34:58.183Z,5.20
2023-05-25T07:38:00.716Z,4.97
2023-05-25T07:41:02.425Z,5.93
2023-05-25T07:44:04.572Z,5.55
2023-05-25T07:47:07.141Z,4.88
2023-05-25T07:50:09.197Z,4.80
2023-05-25T07:53:11.009Z,4.20
2023-05-25T07:56:12.864Z,5.70
2023-05-25T07:59:14.733Z,4.75
2023-05-25T08:02:16.818Z,5.13
2023-05-25T08:05:18.616Z,4.68
2023-05-25T08:08:20.465Z,4.32
2023-05-25T08:11:24.067Z,5.15
2023-05-25T08:14:25.842Z,5.20
2023-05-25T08:17:27.523Z,4.60
2023-05-25T08:20:29.453Z,4.50
2023-05-25T08:23:31.903Z,5.13
2023-05-25T08:26:52.809Z,4.50
2023-05-25T08:29:56.125Z,4.80
2023-05-25T08:32:57.842Z,4.85
2023-05-25T08:35:59.740Z,5.28
2023-05-25T08:39:01.827Z,4.90
2023-05-25T08:42:03.951Z,4.88
2023-05-25T08:45:05.802Z,5.00
2023-05-25T08:48:10.902Z,4.40
2023-05-25T08:51:14.728Z,4.78
2023-05-25T08:54:18.182Z,5.55
2023-05-25T08:57:29.507Z,4.72
2023-05-25T09:00:42.560Z,4.45
2023-05-25T09:03:45.632Z,5.00
2023-05-25T09:06:57.302Z,4.50
2023-05-25T09:10:08.906Z,5.38
2023-05-25T09:13:21.286Z,4.45
2023-05-25T09:16:26.024Z,5.10
2023-05-25T09:19:27.774Z,4.82
2023-05-25T09:22:29.515Z,4.78
2023-05-25T09:25:31.968Z,4.30
2023-05-25T09:28:33.738Z,4.80
2023-05-25T09:31:36.288Z,4.60
2023-05-25T09:34:38.037Z,4.78
2023-05-25T09:37:41.071Z,4.60
2023-05-25T09:40:43.286Z,4.70
2023-05-25T09:43:54.769Z,4.50
2023-05-25T09:47:07.261Z,4.82
2023-05-25T09:50:09.551Z,4.60
2023-05-25T09:53:11.250Z,5.07
2023-05-25T09:56:13.003Z,4.45
2023-05-25T09:59:14.929Z,5.60
2023-05-25T10:02:16.744Z,5.70
2023-05-25T10:05:18.545Z,5.33
2023-05-25T10:08:21.751Z,5.07
2023-05-25T10:11:24.885Z,4.83
2023-05-25T10:14:29.359Z,4.53
2023-05-25T10:17:32.124Z,4.73
2023-05-25T10:20:35.341Z,3.83
2023-05-25T10:23:41.797Z,4.67
2023-05-25T10:26:47.041Z,5.13
2023-05-25T10:29:49.672Z,4.50
2023-05-25T10:32:51.794Z,4.20
2023-05-25T10:38:58.925Z,3.80
2023-05-25T10:42:02.276Z,3.90
2023-05-25T10:45:08.566Z,4.63
2023-05-25T10:48:10.897Z,4.13
2023-05-25T10:51:12.986Z,3.72
2023-05-25T10:54:15.352Z,4.57
2023-05-25T10:57:22.897Z,4.07
2023-05-25T11:00:24.668Z,4.27
2023-05-25T11:03:45.340Z,4.15
2023-05-25T11:06:47.472Z,3.37
2023-05-25T11:09:56.792Z,3.77
2023-05-25T11:13:18.447Z,3.60
2023-05-25T11:16:20.461Z,4.10
2023-05-25T11:19:22.338Z,4.10
2023-05-25T11:22:30.735Z,3.65
2023-05-25T11:25:37.178Z,4.03
2023-05-25T11:28:46.526Z,4.40
2023-05-25T11:31:55.318Z,5.40
2023-05-25T11:34:58.403Z,4.20
2023-05-25T11:38:00.658Z,4.27
2023-05-25T11:41:03.781Z,3.50
2023-05-25T11:44:08.621Z,4.40
2023-05-25T11:47:13.495Z,5.00
2023-05-25T11:50:16.036Z,5.00
2023-05-25T11:53:17.764Z,4.30
2023-05-25T11:56:34.136Z,6.07
2023-05-25T11:59:39.619Z,6.23
2023-05-25T12:02:44.526Z,5.90
2023-05-25T12:05:46.375Z,7.00
2023-05-25T12:08:48.175Z,5.20
2023-05-25T12:11:50.099Z,5.20
2023-05-25T12:14:51.861Z,7.03
2023-05-25T12:17:54.504Z,6.17
2023-05-25T12:20:57.283Z,6.07
2023-05-25T12:23:59.551Z,5.23
2023-05-25T12:27:02.494Z,4.03
2023-05-25T12:30:05.607Z,2.80
2023-05-25T12:33:07.846Z,2.77
2023-05-25T12:36:09.979Z,3.30
2023-05-25T12:39:14.025Z,2.83
2023-05-25T12:42:16.421Z,3.40
2023-05-25T12:45:18.248Z,4.70
2023-05-25T12:48:25.904Z,3.90
2023-05-25T12:51:37.517Z,4.27
2023-05-25T12:54:41.081Z,4.10
2023-05-25T12:57:42.746Z,4.97
2023-05-25T13:00:44.653Z,5.53
2023-05-25T13:03:46.547Z,4.57
2023-05-25T13:06:48.315Z,4.47
2023-05-25T13:09:50.068Z,5.23
2023-05-25T13:12:52.369Z,5.60
2023-05-25T13:15:54.070Z,5.17
2023-05-25T13:18:55.862Z,5.23
2023-05-25T13:21:57.861Z,5.47
2023-05-25T13:24:59.664Z,5.37
2023-05-25T13:28:01.366Z,6.20
2023-05-25T13:31:03.343Z,6.07
2023-05-25T13:34:05.095Z,5.57
2023-05-25T13:37:06.909Z,4.57
2023-05-25T13:40:08.856Z,4.90
2023-05-25T13:43:10.626Z,4.57
2023-05-25T13:46:25.875Z,4.60
2023-05-25T13:49:34.164Z,4.80
2023-05-25T13:52:37.093Z,5.93
2023-05-25T13:55:41.727Z,6.87
2023-05-25T13:58:44.325Z,5.03
2023-05-25T14:01:46.797Z,5.30
2023-05-25T14:04:48.553Z,5.27
2023-05-25T14:07:50.365Z,5.57
2023-05-25T14:10:52.116Z,5.80
2023-05-25T14:13:53.876Z,6.60
2023-05-25T14:16:55.663Z,5.37
2023-05-25T14:19:58.574Z,6.23
2023-05-25T14:23:01.912Z,9.20
2023-05-25T14:26:03.633Z,11.20
2023-05-25T14:29:05.392Z,5.67
2023-05-25T14:32:07.093Z,7.53
2023-05-25T14:35:09.037Z,10.43
2023-05-25T14:38:10.796Z,8.17
2023-05-25T14:41:12.558Z,8.47
2023-05-25T14:44:14.242Z,6.87
2023-05-25T14:47:16.107Z,6.23
2023-05-25T14:50:17.877Z,6.07
2023-05-25T14:53:19.851Z,6.53
2023-05-25T14:56:21.693Z,8.53
2023-05-25T14:59:23.354Z,8.20
2023-05-25T15:02:25.291Z,7.50
2023-05-25T15:05:26.989Z,8.63
2023-05-25T15:08:28.646Z,9.43
2023-05-25T15:11:30.453Z,9.23
2023-05-25T15:14:32.120Z,9.00
2023-05-25T15:17:33.848Z,9.60
2023-05-25T15:20:38.350Z,10.93
2023-05-25T15:23:45.774Z,10.67
2023-05-25T15:26:49.885Z,7.07
2023-05-25T15:29:52.050Z,7.20
2023-05-25T15:32:56.510Z,7.00
2023-05-25T15:35:58.295Z,7.20
2023-05-25T15:39:00.206Z,6.73
2023-05-25T15:42:02.392Z,5.90
2023-05-25T15:45:09.656Z,5.77
2023-05-25T15:48:11.464Z,6.80
2023-05-25T15:51:16.151Z,6.73
2023-05-25T15:54:22.965Z,6.40
2023-05-25T15:57:24.939Z,7.60
2023-05-25T16:00:27.454Z,7.60
2023-05-25T16:03:29.743Z,7.10
2023-05-25T16:06:34.765Z,8.03
2023-05-25T16:09:38.831Z,9.13
2023-05-25T16:12:41.185Z,9.20
2023-05-25T16:15:43.383Z,6.13
2023-05-25T16:18:45.929Z,6.90
2023-05-25T16:21:47.721Z,6.13
2023-05-25T16:24:49.500Z,7.53
2023-05-25T16:27:54.453Z,8.47
2023-05-25T16:30:58.963Z,9.17
2023-05-25T16:34:04.136Z,8.00
2023-05-25T16:37:08.802Z,9.97
2023-05-25T16:40:18.176Z,9.40
2023-05-25T16:43:22.069Z,11.47
2023-05-25T16:46:27.941Z,9.00
2023-05-25T16:49:29.853Z,8.13
2023-05-25T16:52:34.814Z,8.50
2023-05-25T16:55:39.128Z,8.83
2023-05-25T16:58:44.217Z,10.20
2023-05-25T17:01:47.021Z,9.30
2023-05-25T17:04:48.735Z,15.30
2023-05-25T17:07:50.488Z,10.30
2023-05-25T17:10:52.488Z,9.73
2023-05-25T17:13:54.149Z,9.23
2023-05-25T17:16:55.890Z,9.20
2023-05-25T17:19:57.658Z,10.33
2023-05-25T17:22:59.342Z,8.70
2023-05-25T17:26:00.972Z,8.10
2023-05-25T17:29:02.675Z,7.80
2023-05-25T17:32:04.528Z,7.20
2023-05-25T17:35:06.609Z,7.40
2023-05-25T17:38:08.285Z,7.10
2023-05-25T17:41:10.073Z,7.67
2023-05-25T17:44:11.713Z,7.53
2023-05-25T17:47:13.386Z,7.57
2023-05-25T17:50:15.166Z,8.00
2023-05-25T17:53:16.908Z,11.67
2023-05-25T17:56:18.562Z,10.27
2023-05-25T17:59:20.208Z,8.03
2023-05-25T18:02:22.868Z,15.70
2023-05-25T18:05:24.710Z,14.27
2023-05-25T18:08:26.408Z,12.37
2023-05-25T18:11:29.294Z,10.73
2023-05-25T18:14:35.295Z,9.53
2023-05-25T18:17:37.080Z,22.13
2023-05-25T18:20:38.833Z,24.23
2023-05-25T18:23:40.527Z,12.13
2023-05-25T18:26:42.350Z,12.10
2023-05-25T18:29:44.031Z,10.93
2023-05-25T18:32:45.693Z,10.67
2023-05-25T18:35:47.486Z,11.70
2023-05-25T18:38:49.286Z,10.70
2023-05-25T18:41:51.103Z,10.57
2023-05-25T18:44:52.719Z,10.63
2023-05-25T18:47:54.505Z,9.70
2023-05-25T18:50:56.221Z,10.07
2023-05-25T18:53:58.867Z,11.43
2023-05-25T18:57:01.678Z,10.90
2023-05-25T19:00:03.982Z,10.13
2023-05-25T19:03:06.910Z,13.77
2023-05-25T19:06:08.633Z,13.20
2023-05-25T19:09:10.588Z,11.20
2023-05-25T19:12:12.291Z,11.87
2023-05-25T19:15:13.930Z,11.23
2023-05-25T19:18:15.809Z,11.43
2023-05-25T19:21:17.525Z,11.90
2023-05-25T19:24:19.309Z,12.10
2023-05-25T19:27:21.165Z,12.23
2023-05-25T19:30:22.852Z,11.47
2023-05-25T19:33:24.489Z,10.93
2023-05-25T19:36:26.362Z,10.90
2023-05-25T19:39:28.229Z,12.27
2023-05-25T19:42:29.883Z,10.13
2023-05-25T19:45:31.655Z,10.57
2023-05-25T19:48:33.361Z,13.63
2023-05-25T19:51:34.975Z,14.20
2023-05-25T19:54:37.160Z,13.93
2023-05-25T19:57:38.926Z,13.07
2023-05-25T20:00:41.001Z,11.50
2023-05-25T20:03:44.769Z,9.30
2023-05-25T20:06:46.732Z,9.20
2023-05-25T20:09:48.508Z,9.33
2023-05-25T20:12:50.179Z,9.33
2023-05-25T20:15:54.799Z,9.77
2023-05-25T20:18:58.625Z,9.20
2023-05-25T20:22:04.467Z,8.83
2023-05-25T20:25:06.383Z,8.60
2023-05-25T20:28:08.056Z,7.97
2023-05-25T20:31:12.024Z,8.23
2023-05-25T20:34:13.847Z,8.17
2023-05-25T20:37:17.748Z,8.40
2023-05-25T20:40:23.486Z,8.33
2023-05-25T20:43:28.147Z,8.13
2023-05-25T20:46:30.246Z,10.40
2023-05-25T20:49:31.966Z,9.87
2023-05-25T20:52:33.922Z,7.60
2023-05-25T20:55:35.843Z,7.60
2023-05-25T20:58:42.024Z,8.30
2023-05-25T21:01:46.756Z,9.50
2023-05-25T21:04:48.773Z,8.43
2023-05-25T21:07:51.101Z,7.90
2023-05-25T21:10:52.943Z,8.20
2023-05-25T21:13:57.602Z,8.30
2023-05-25T21:16:59.427Z,7.43
2023-05-25T21:20:01.365Z,7.93
2023-05-25T21:23:03.025Z,8.60
2023-05-25T21:26:04.660Z,7.20
2023-05-25T21:29:07.751Z,7.47
2023-05-25T21:32:09.438Z,7.77
2023-05-25T21:35:11.183Z,7.17
2023-05-25T21:38:12.959Z,8.23
2023-05-25T21:41:14.586Z,7.87
2023-05-25T21:44:16.325Z,8.10
2023-05-25T21:47:18.044Z,7.40
2023-05-25T21:50:19.848Z,8.20
2023-05-25T21:53:21.530Z,7.50
2023-05-25T21:56:23.169Z,7.70
2023-05-25T21:59:24.783Z,7.57
2023-05-25T22:02:26.573Z,8.20
2023-05-25T22:05:28.312Z,7.77
2023-05-25T22:08:30.105Z,7.70
2023-05-25T22:11:31.806Z,7.57
2023-05-25T22:14:33.437Z,7.60
2023-05-25T22:17:35.133Z,7.73
2023-05-25T22:20:39.006Z,8.37
2023-05-25T22:23:40.767Z,7.37
2023-05-25T22:26:42.501Z,7.67
2023-05-25T22:29:44.210Z,7.67
2023-05-25T22:32:46.060Z,8.17
2023-05-25T22:35:47.815Z,7.93
2023-05-25T22:38:49.548Z,8.10
2023-05-25T22:41:51.340Z,8.20
2023-05-25T22:44:53.025Z,8.27
2023-05-25T22:47:54.756Z,8.20
2023-05-25T22:50:56.557Z,8.27
2023-05-25T22:53:58.192Z,8.33
2023-05-25T22:56:59.906Z,8.43
2023-05-25T23:00:01.774Z,8.50
2023-05-25T23:03:04.524Z,8.40
2023-05-25T23:06:06.549Z,8.73
2023-05-25T23:09:08.310Z,8.47
2023-05-25T23:12:10.003Z,9.10
2023-05-25T23:15:11.753Z,7.87
2023-05-25T23:18:13.384Z,8.47
2023-05-25T23:21:15.056Z,7.93
2023-05-25T23:24:16.678Z,8.07
2023-05-25T23:27:18.298Z,8.17
2023-05-25T23:30:19.912Z,7.90
2023-05-25T23:33:22.057Z,8.40
2023-05-25T23:36:26.240Z,7.77
2023-05-25T23:39:28.024Z,7.77
2023-05-25T23:42:29.685Z,8.27
2023-05-25T23:45:31.333Z,7.90
2023-05-25T23:48:32.989Z,7.53
2023-05-25T23:51:34.709Z,8.13
2023-05-25T23:54:36.469Z,7.90
2023-05-25T23:57:38.632Z,8.00
